Time;durP1;ratioP1;P1;durP2;ratioP2;P2;SDS_P1;SDS_P2;PMS_P1;PMS_P2;Temp;Humidity;BMP_temperature;BMP_pressure;BME280_temperature;BME280_humidity;BME280_pressure;Samples;Min_cycle;Max_cycle;Signal;HPM_P1;HPM_P2
2022/11/18 00:01:44;;;;;;;126.43;48.50;;;;;;;-141.97;100.00;47705.53;4993909;28;20679;-81
2022/11/18 00:04:09;;;;;;;135.23;47.00;;;;;;;-141.97;100.00;47863.13;5011704;28;20174;-81
2022/11/18 00:06:35;;;;;;;165.90;47.00;;;;;;;-141.97;100.00;47970.78;5011716;28;20182;-82
2022/11/18 00:09:00;;;;;;;140.77;44.40;;;;;;;-141.97;100.00;47859.28;5011282;28;20605;-82
2022/11/18 00:14:19;;;;;;;124.20;42.57;;;;;;;-141.97;100.00;47888.13;5011537;28;20217;-83
2022/11/18 00:16:51;;;;;;;118.33;43.13;;;;;;;-141.97;100.00;47874.69;4993059;28;20178;-82
2022/11/18 00:19:18;;;;;;;117.77;43.90;;;;;;;-141.97;100.00;47859.28;5011117;28;20177;-82
2022/11/18 00:21:43;;;;;;;113.63;42.87;;;;;;;-141.97;100.00;47895.81;5011301;28;20195;-82
2022/11/18 00:24:09;;;;;;;108.00;41.33;;;;;;;-141.97;100.00;47916.97;5011485;28;20301;-82
2022/11/18 00:26:35;;;;;;;96.47;39.73;;;;;;;-141.97;100.00;47845.84;5010994;28;20171;-82
2022/11/18 00:29:01;;;;;;;124.40;40.80;;;;;;;-141.97;100.00;47903.50;5011313;28;20175;-80
2022/11/18 00:31:26;;;;;;;115.23;41.53;;;;;;;-141.97;100.00;47868.91;5011278;28;20162;-82
2022/11/18 00:33:52;;;;;;;99.47;40.00;;;;;;;-141.97;100.00;47926.56;5011316;28;20627;-80
2022/11/18 00:36:27;;;;;;;108.67;39.30;;;;;;;-141.97;100.00;47849.69;5010937;28;20177;-81
2022/11/18 00:38:53;;;;;;;108.00;40.47;;;;;;;-141.97;100.00;47890.06;5011332;28;20181;-81
2022/11/18 00:41:19;;;;;;;106.27;40.03;;;;;;;-141.97;100.00;47845.84;5011215;28;20224;-82
2022/11/18 00:43:44;;;;;;;106.53;43.03;;;;;;;-141.97;100.00;47857.38;4997534;28;20633;-82
2022/11/18 00:46:11;;;;;;;120.53;42.83;;;;;;;-141.97;100.00;47822.78;5011341;28;20179;-81
2022/11/18 00:48:37;;;;;;;109.63;39.73;;;;;;;-141.97;100.00;47880.44;5010742;28;20198;-81
2022/11/18 00:51:13;;;;;;;121.87;40.97;;;;;;;-141.97;100.00;47788.19;5011173;28;20179;-81
2022/11/18 00:53:39;;;;;;;104.50;40.27;;;;;;;-141.97;100.00;47838.16;5000780;28;20185;-82
2022/11/18 00:56:05;;;;;;;125.93;42.33;;;;;;;-141.97;100.00;47870.81;5012468;28;20159;-81
2022/11/18 00:58:30;;;;;;;102.00;40.17;;;;;;;-141.97;100.00;47853.53;5011269;28;20193;-81
2022/11/18 01:00:56;;;;;;;113.63;40.47;;;;;;;-141.97;100.00;47847.75;5011261;28;20558;-81
2022/11/18 01:03:24;;;;;;;98.83;37.53;;;;;;;-141.97;100.00;47801.63;5010482;28;20202;-81
2022/11/18 01:05:50;;;;;;;105.87;38.23;;;;;;;-141.97;100.00;47832.38;5011028;28;20658;-81
2022/11/18 01:08:16;;;;;;;91.10;37.77;;;;;;;-141.97;100.00;47842.00;5010812;28;20226;-81
2022/11/18 01:10:42;;;;;;;110.13;40.13;;;;;;;-141.97;100.00;47803.56;5011066;28;20171;-81
2022/11/18 01:13:18;;;;;;;117.47;39.60;;;;;;;-141.97;100.00;47916.97;5011305;28;20705;-82
2022/11/18 01:15:46;;;;;;;112.47;41.20;;;;;;;-141.97;100.00;47870.81;5011173;28;20529;-82
2022/11/18 01:18:12;;;;;;;99.33;38.63;;;;;;;-141.97;100.00;47768.94;5011009;28;20175;-82
2022/11/18 01:20:38;;;;;;;91.93;39.87;;;;;;;-141.97;100.00;47738.19;5011108;28;20642;-82
2022/11/18 01:23:03;;;;;;;117.60;41.77;;;;;;;-141.97;100.00;47730.50;5010665;28;20202;-82
2022/11/18 01:25:29;;;;;;;146.73;44.00;;;;;;;-141.97;100.00;47866.97;5010857;28;20171;-82
2022/11/18 01:27:55;;;;;;;138.07;44.43;;;;;;;-141.97;100.00;47861.22;5011336;28;20248;-82
2022/11/18 01:30:20;;;;;;;187.23;50.97;;;;;;;-141.97;100.00;47872.75;4996583;28;20614;-81
2022/11/18 01:32:46;;;;;;;165.17;49.20;;;;;;;-141.97;100.00;47834.31;4997059;28;20670;-79
2022/11/18 01:35:12;;;;;;;111.57;40.03;;;;;;;-141.97;100.00;47865.06;5013942;28;20524;-80
2022/11/18 01:37:38;;;;;;;156.27;43.57;;;;;;;-141.97;100.00;47847.75;5014304;28;20171;-82
2022/11/18 01:40:06;;;;;;;156.37;42.83;;;;;;;-141.97;100.00;47849.69;5014185;28;20167;-82
2022/11/18 01:42:31;;;;;;;128.00;41.73;;;;;;;-141.97;100.00;47868.91;5014000;28;20202;-81
2022/11/18 01:45:09;;;;;;;124.53;41.60;;;;;;;-141.97;100.00;47872.75;5014032;28;20549;-82
2022/11/18 01:47:43;;;;;;;183.67;39.70;;;;;;;-141.97;100.00;47861.22;5014338;28;20179;-82
2022/11/18 01:50:11;;;;;;;165.23;38.77;;;;;;;-141.97;100.00;47913.13;4998643;28;20197;-82
2022/11/18 01:52:37;;;;;;;130.90;40.10;;;;;;;-141.97;100.00;47838.16;5028917;28;20151;-81
2022/11/18 01:55:12;;;;;;;142.93;39.17;;;;;;;-141.97;100.00;47815.09;5026845;28;20197;-81
2022/11/18 01:57:38;;;;;;;211.77;38.90;;;;;;;-141.97;100.00;47899.66;5014446;28;20174;-81
2022/11/18 02:00:05;;;;;;;166.13;39.20;;;;;;;-141.97;100.00;47872.75;5013750;28;20309;-81
2022/11/18 02:02:34;;;;;;;205.07;40.03;;;;;;;-141.97;100.00;47943.88;5013668;28;20195;-81
2022/11/18 02:05:03;;;;;;;143.73;39.30;;;;;;;-141.97;100.00;47838.16;5013679;28;20639;-81
2022/11/18 02:07:28;;;;;;;181.40;39.33;;;;;;;-141.97;100.00;47870.81;5013141;28;20215;-81
2022/11/18 02:09:58;;;;;;;178.83;40.93;;;;;;;-141.97;100.00;47661.31;5013161;28;20179;-81
2022/11/18 02:12:23;;;;;;;147.10;40.30;;;;;;;-141.97;100.00;47851.59;4995783;28;20179;-81
2022/11/18 02:14:50;;;;;;;140.87;40.43;;;;;;;-141.97;100.00;47866.97;5013708;28;20224;-81
2022/11/18 02:17:43;;;;;;;121.57;39.73;;;;;;;-141.97;100.00;47868.91;5012115;28;20194;-80
2022/11/18 02:20:29;;;;;;;146.07;40.10;;;;;;;-141.97;100.00;47872.75;5012832;28;20175;-81
2022/11/18 02:22:54;;;;;;;175.43;43.20;;;;;;;-141.97;100.00;47842.00;5013009;28;20198;-81
2022/11/18 02:25:22;;;;;;;144.13;42.63;;;;;;;-141.97;100.00;47878.53;5013339;28;20703;-81
2022/11/18 02:28:12;;;;;;;144.07;41.80;;;;;;;-141.97;100.00;47845.84;5012984;28;20206;-81
2022/11/18 02:30:55;;;;;;;158.73;39.63;;;;;;;-141.97;100.00;47886.22;5013424;28;20175;-81
2022/11/18 02:33:58;;;;;;;138.17;40.00;;;;;;;-141.97;100.00;47845.84;5013389;28;20171;-81
2022/11/18 02:36:39;;;;;;;182.53;37.47;;;;;;;-141.97;100.00;47834.31;4953109;29;20642;-83
2022/11/18 02:39:09;;;;;;;163.83;36.53;;;;;;;-141.97;100.00;47918.88;4952389;28;20280;-82
2022/11/18 02:41:37;;;;;;;226.43;36.13;;;;;;;-141.97;100.00;47876.59;4951943;29;20192;-80
2022/11/18 02:44:08;;;;;;;185.13;35.90;;;;;;;-141.97;100.00;47793.94;4952173;29;20216;-81
2022/11/18 02:46:37;;;;;;;146.50;33.80;;;;;;;-141.97;100.00;47949.66;4952042;29;20200;-81
2022/11/18 02:49:09;;;;;;;164.90;31.93;;;;;;;-141.97;100.00;47845.84;4952290;29;20172;-81
2022/11/18 02:51:35;;;;;;;190.03;31.67;;;;;;;-141.97;100.00;47884.28;4952299;29;20247;-81
2022/11/18 02:54:07;;;;;;;190.33;34.20;;;;;;;-141.97;100.00;47855.44;4952837;29;20199;-81
2022/11/18 02:56:35;;;;;;;261.60;35.77;;;;;;;-141.97;100.00;47807.41;4959561;29;20186;-81
2022/11/18 02:59:01;;;;;;;197.03;32.00;;;;;;;-141.97;100.00;47767.03;4953288;29;20236;-81
2022/11/18 03:01:32;;;;;;;154.70;31.60;;;;;;;-141.97;100.00;47859.28;4951987;29;20192;-81
2022/11/18 03:03:58;;;;;;;154.20;33.47;;;;;;;-141.97;100.00;47857.38;4951974;29;20192;-82
2022/11/18 03:07:09;;;;;;;135.23;32.77;;;;;;;-141.97;100.00;47951.56;4952562;29;20196;-80
2022/11/18 03:09:38;;;;;;;176.90;32.83;;;;;;;-141.97;100.00;47957.34;4952169;29;20183;-81
2022/11/18 03:12:30;;;;;;;156.70;31.37;;;;;;;-141.97;100.00;47861.22;4954958;28;20215;-81
2022/11/18 03:15:08;;;;;;;202.63;33.47;;;;;;;-141.97;100.00;47876.59;4995228;28;20174;-80
2022/11/18 03:17:55;;;;;;;200.53;32.57;;;;;;;-141.97;100.00;47868.91;5012248;28;20677;-81
2022/11/18 03:20:21;;;;;;;168.00;30.67;;;;;;;-141.97;100.00;47865.06;4994234;28;20186;-81
2022/11/18 03:22:59;;;;;;;137.00;34.00;;;;;;;-141.97;100.00;47857.38;5011982;28;20202;-80
2022/11/18 03:25:46;;;;;;;113.07;31.37;;;;;;;-141.97;100.00;47847.75;5012287;28;20178;-80
2022/11/18 03:28:20;;;;;;;111.80;29.93;;;;;;;-141.97;100.00;47853.53;5012112;28;20863;-81
2022/11/18 03:30:55;;;;;;;108.40;32.07;;;;;;;-141.97;100.00;47842.00;5012202;28;20162;-80
2022/11/18 03:33:27;;;;;;;133.57;35.20;;;;;;;-141.97;100.00;47857.38;5012188;28;20170;-80
2022/11/18 03:35:53;;;;;;;145.33;33.30;;;;;;;-141.97;100.00;47876.59;5011952;28;20643;-81
2022/11/18 03:38:31;;;;;;;112.03;33.57;;;;;;;-141.97;100.00;47870.81;5011559;28;20174;-81
2022/11/18 03:41:02;;;;;;;159.63;34.63;;;;;;;-141.97;100.00;47882.38;5012402;28;20200;-82
2022/11/18 03:43:33;;;;;;;130.93;31.73;;;;;;;-141.97;100.00;47809.31;4994416;28;20215;-81
2022/11/18 03:46:05;;;;;;;111.73;28.07;;;;;;;-141.97;100.00;47843.91;5012168;28;20265;-81
2022/11/18 03:48:40;;;;;;;140.90;32.47;;;;;;;-141.97;100.00;47876.59;4994562;28;20175;-80
2022/11/18 03:51:09;;;;;;;101.60;27.43;;;;;;;-141.97;100.00;47888.13;4994039;28;20174;-80
2022/11/18 03:53:57;;;;;;;121.70;30.53;;;;;;;-141.97;100.00;47857.38;5011627;28;20264;-81
2022/11/18 03:56:30;;;;;;;146.47;31.73;;;;;;;-141.97;100.00;47907.34;5011403;28;20261;-80
2022/11/18 03:59:25;;;;;;;135.83;33.17;;;;;;;-141.97;100.00;47861.22;5011659;28;20182;-81
2022/11/18 04:01:52;;;;;;;158.43;31.63;;;;;;;-141.97;100.00;47811.25;4931998;29;20835;-82
2022/11/18 04:04:19;;;;;;;119.97;32.47;;;;;;;-141.97;100.00;47884.28;4932193;29;20914;-81
2022/11/18 04:06:48;;;;;;;139.50;33.67;;;;;;;-141.97;100.00;47836.22;4932019;29;20225;-81
2022/11/18 04:09:22;;;;;;;171.93;32.33;;;;;;;-141.97;100.00;47916.97;4932033;29;20224;-84
2022/11/18 04:12:03;;;;;;;151.43;32.30;;;;;;;-141.97;100.00;47893.91;4931953;29;20272;-81
2022/11/18 04:14:48;;;;;;;143.50;30.93;;;;;;;-141.97;100.00;47834.31;4932057;29;20264;-80
2022/11/18 04:17:18;;;;;;;112.93;31.17;;;;;;;-141.97;100.00;47845.84;4932826;29;20213;-81
2022/11/18 04:19:44;;;;;;;133.53;29.93;;;;;;;-141.97;100.00;47822.78;4932775;29;20657;-82
2022/11/18 04:22:10;;;;;;;128.07;29.33;;;;;;;-141.97;100.00;47817.00;4931357;29;20212;-82
2022/11/18 04:24:35;;;;;;;200.23;30.40;;;;;;;-141.97;100.00;47882.38;4915687;29;20189;-82
2022/11/18 04:27:02;;;;;;;175.13;32.80;;;;;;;-141.97;100.00;47861.22;4932285;29;20176;-81
2022/11/18 04:29:28;;;;;;;209.23;35.07;;;;;;;-141.97;100.00;47745.88;4931888;29;20185;-81
2022/11/18 04:31:54;;;;;;;197.33;36.97;;;;;;;-141.97;100.00;47849.69;4931419;29;20216;-81
2022/11/18 04:34:19;;;;;;;136.60;46.77;;;;;;;-141.97;100.00;47863.13;4932000;29;20577;-81
2022/11/18 04:36:45;;;;;;;229.33;44.97;;;;;;;-141.97;100.00;47976.56;4931908;29;20185;-80
2022/11/18 04:39:10;;;;;;;175.93;34.03;;;;;;;-141.97;100.00;47845.84;4977000;28;20183;-80
2022/11/18 04:41:54;;;;;;;166.63;32.37;;;;;;;-141.97;100.00;47834.31;4991681;28;20688;-83
2022/11/18 04:44:24;;;;;;;159.67;32.20;;;;;;;-141.97;100.00;47872.75;4994714;28;20163;-82
2022/11/18 04:46:50;;;;;;;149.93;32.90;;;;;;;-141.97;100.00;47974.63;5000501;28;20168;-81
2022/11/18 04:49:16;;;;;;;158.00;32.40;;;;;;;-141.97;100.00;47870.81;5012436;28;20568;-82
2022/11/18 04:51:42;;;;;;;182.57;32.97;;;;;;;-141.97;100.00;47880.44;4992019;28;20260;-82
2022/11/18 04:54:09;;;;;;;137.13;34.83;;;;;;;-141.97;100.00;47882.38;4991751;28;20195;-82
2022/11/18 04:56:34;;;;;;;169.10;31.43;;;;;;;-141.97;100.00;47761.25;4992082;28;20250;-82
2022/11/18 04:59:01;;;;;;;246.47;37.23;;;;;;;-141.97;100.00;47849.69;5000875;28;20235;-82
2022/11/18 05:01:27;;;;;;;241.17;33.67;;;;;;;-141.97;100.00;47947.72;4993507;28;20237;-82
2022/11/18 05:03:53;;;;;;;217.90;33.00;;;;;;;-141.97;100.00;47757.41;4968083;28;20241;-83
2022/11/18 05:06:19;;;;;;;198.73;38.77;;;;;;;-141.97;100.00;47874.69;4990781;28;20281;-82
2022/11/18 05:08:44;;;;;;;238.60;43.97;;;;;;;-141.97;100.00;47820.84;5007380;28;20246;-81
2022/11/18 05:13:54;;;;;;;227.70;36.73;;;;;;;-141.97;100.00;47834.31;5013153;28;20765;-82
2022/11/18 05:16:19;;;;;;;406.90;55.43;;;;;;;-141.97;100.00;47872.75;5012748;28;20262;-81
2022/11/18 05:18:45;;;;;;;362.97;66.93;;;;;;;-141.97;100.00;47893.91;5013013;28;20187;-82
2022/11/18 05:21:10;;;;;;;271.80;64.13;;;;;;;-141.97;100.00;47880.44;5012817;28;20261;-83
2022/11/18 05:23:36;;;;;;;261.30;64.43;;;;;;;-141.97;100.00;47855.44;5011785;28;20210;-82
2022/11/18 05:26:09;;;;;;;300.13;59.60;;;;;;;-141.97;100.00;47863.13;4988169;28;20272;-83
2022/11/18 05:28:38;;;;;;;265.93;62.37;;;;;;;-141.97;100.00;47951.56;5012719;28;20175;-83
2022/11/18 05:31:13;;;;;;;188.50;44.00;;;;;;;-141.97;100.00;47780.47;4984379;28;20219;-82
2022/11/18 05:33:39;;;;;;;187.70;40.67;;;;;;;-141.97;100.00;47722.81;4952188;29;20199;-82
2022/11/18 05:36:11;;;;;;;227.27;41.10;;;;;;;-141.97;100.00;47895.81;4964696;28;20207;-84
2022/11/18 05:38:37;;;;;;;201.53;37.67;;;;;;;-141.97;100.00;47882.38;4954693;28;20770;-82
2022/11/18 05:41:03;;;;;;;216.73;35.67;;;;;;;-141.97;100.00;47880.44;4970098;28;20330;-82
2022/11/18 05:43:29;;;;;;;230.47;38.57;;;;;;;-141.97;100.00;47880.44;4969661;28;20310;-82
2022/11/18 05:45:54;;;;;;;271.80;51.90;;;;;;;-141.97;100.00;47886.22;4970766;28;20188;-81
2022/11/18 05:48:20;;;;;;;273.77;56.23;;;;;;;-141.97;100.00;47868.91;4954893;28;20263;-80
2022/11/18 05:50:47;;;;;;;240.10;62.17;;;;;;;-141.97;100.00;47868.91;4971553;28;20715;-82
2022/11/18 05:53:14;;;;;;;329.27;77.80;;;;;;;-141.97;100.00;47909.28;4971749;28;20192;-83
2022/11/18 05:55:43;;;;;;;499.57;119.07;;;;;;;-141.97;100.00;47876.59;4969898;28;20247;-81
2022/11/18 05:58:09;;;;;;;310.07;82.40;;;;;;;-141.97;100.00;47872.75;4971121;28;20307;-81
2022/11/18 06:00:35;;;;;;;137.43;40.50;;;;;;;-141.97;100.00;47863.13;4971149;28;20310;-81
2022/11/18 06:03:01;;;;;;;153.07;36.70;;;;;;;-141.97;100.00;47836.22;4958810;28;20220;-81
2022/11/18 06:05:26;;;;;;;135.90;33.43;;;;;;;-141.97;100.00;47890.06;4969270;28;20281;-80
2022/11/18 06:07:53;;;;;;;195.87;35.37;;;;;;;-141.97;100.00;47895.81;4980122;28;20224;-80
2022/11/18 06:10:31;;;;;;;180.37;34.47;;;;;;;-141.97;100.00;47861.22;5011906;28;20198;-80
2022/11/18 06:13:01;;;;;;;174.47;36.37;;;;;;;-141.97;100.00;47820.84;5011732;28;20225;-81
2022/11/18 06:15:34;;;;;;;169.27;35.47;;;;;;;-141.97;100.00;47890.06;5010093;28;20662;-80
2022/11/18 06:18:40;;;;;;;127.30;35.23;;;;;;;-141.97;100.00;47851.59;5011783;28;20178;-81
2022/11/18 06:21:05;;;;;;;141.23;35.33;;;;;;;-141.97;100.00;47834.31;4936459;29;20592;-80
2022/11/18 06:23:34;;;;;;;118.47;33.23;;;;;;;-141.97;100.00;47818.94;4939068;29;20318;-81
2022/11/18 06:26:00;;;;;;;118.23;33.90;;;;;;;-141.97;100.00;47876.59;4938584;28;20244;-81
2022/11/18 06:28:27;;;;;;;145.40;33.03;;;;;;;-141.97;100.00;48005.38;4953765;29;20600;-81
2022/11/18 06:30:52;;;;;;;147.67;33.63;;;;;;;-141.97;100.00;47824.69;4950678;29;20330;-82
2022/11/18 06:33:18;;;;;;;141.43;34.10;;;;;;;-141.97;100.00;47899.66;4952264;29;20217;-82
2022/11/18 06:35:44;;;;;;;177.57;35.33;;;;;;;-141.97;100.00;47876.59;4952387;28;20207;-81
2022/11/18 06:38:09;;;;;;;170.13;34.90;;;;;;;-141.97;100.00;47886.22;4956090;29;20201;-81
2022/11/18 06:40:36;;;;;;;173.80;39.93;;;;;;;-141.97;100.00;47868.91;4952646;29;20251;-82
2022/11/18 06:48:36;;;;;;;198.10;56.07;;;;;;;-141.97;100.00;47897.75;4951278;29;20231;-81
2022/11/18 06:51:05;;;;;;;202.70;56.60;;;;;;;-141.97;100.00;47863.13;4951447;29;20236;-81
2022/11/18 06:53:30;;;;;;;166.13;46.53;;;;;;;-141.97;100.00;47861.22;4950761;28;20251;-80
2022/11/18 06:56:01;;;;;;;250.33;63.60;;;;;;;-141.97;100.00;47865.06;4950283;29;20277;-82
2022/11/18 06:58:26;;;;;;;161.93;54.10;;;;;;;-141.97;100.00;47895.81;4988135;28;20192;-84
2022/11/18 07:00:52;;;;;;;337.97;92.13;;;;;;;-141.97;100.00;47961.19;5007273;28;20215;-84
2022/11/18 07:03:17;;;;;;;587.30;172.77;;;;;;;-141.97;100.00;47857.38;4981594;28;20203;-82
2022/11/18 07:05:45;;;;;;;239.53;57.10;;;;;;;-141.97;100.00;47845.84;4998575;28;20205;-83
2022/11/18 07:08:10;;;;;;;240.93;58.20;;;;;;;-141.97;100.00;47830.47;4997655;28;20794;-83
2022/11/18 07:10:36;;;;;;;204.07;40.67;;;;;;;-141.97;100.00;47849.69;5004164;28;20190;-84
2022/11/18 07:13:01;;;;;;;196.10;39.83;;;;;;;-141.97;100.00;47834.31;5011167;28;20190;-85
2022/11/18 07:15:26;;;;;;;264.57;53.03;;;;;;;-141.97;100.00;47853.53;5010248;28;20197;-84
2022/11/18 07:17:52;;;;;;;214.03;45.03;;;;;;;-141.97;100.00;47855.44;5000430;28;20269;-84
2022/11/18 07:20:17;;;;;;;268.03;39.40;;;;;;;-141.97;100.00;47772.78;4994053;28;20185;-84
2022/11/18 07:22:42;;;;;;;269.27;60.17;;;;;;;-141.97;100.00;47847.75;5010932;28;20264;-83
2022/11/18 07:25:09;;;;;;;225.53;53.60;;;;;;;-141.97;100.00;47849.69;5000857;28;20226;-84
2022/11/18 07:27:34;;;;;;;228.77;45.93;;;;;;;-141.97;100.00;47884.28;4990925;28;20187;-84
2022/11/18 07:29:59;;;;;;;255.60;61.43;;;;;;;-141.97;100.00;47853.53;4992161;28;20190;-83
2022/11/18 07:32:25;;;;;;;232.07;44.30;;;;;;;-141.97;100.00;47899.66;4991786;28;20628;-84
2022/11/18 07:34:50;;;;;;;158.33;40.63;;;;;;;-141.97;100.00;47874.69;4991347;28;20195;-84
2022/11/18 07:37:16;;;;;;;205.50;33.93;;;;;;;-141.97;100.00;47861.22;4991816;28;20210;-83
2022/11/18 07:39:41;;;;;;;176.03;32.87;;;;;;;-141.97;100.00;47888.13;4989781;28;20179;-83
2022/11/18 07:42:08;;;;;;;159.50;29.07;;;;;;;-141.97;100.00;47934.25;5027509;28;20245;-84
2022/11/18 07:44:33;;;;;;;132.03;31.83;;;;;;;-141.97;100.00;47834.31;5027486;28;20190;-85
2022/11/18 07:47:02;;;;;;;128.90;34.20;;;;;;;-141.97;100.00;47895.81;5016431;28;20190;-85
2022/11/18 07:49:27;;;;;;;154.63;34.97;;;;;;;-141.97;100.00;47720.91;5008621;28;20178;-85
2022/11/18 07:51:53;;;;;;;135.90;32.30;;;;;;;-141.97;100.00;47863.13;5012716;28;20182;-83
2022/11/18 07:54:18;;;;;;;195.13;55.23;;;;;;;-141.97;100.00;47872.75;5010713;28;20182;-83
2022/11/18 07:56:44;;;;;;;225.97;76.07;;;;;;;-141.97;100.00;47822.78;5000842;28;20621;-83
2022/11/18 07:59:09;;;;;;;141.17;42.37;;;;;;;-141.97;100.00;47961.19;4990624;28;20179;-83
2022/11/18 08:01:35;;;;;;;296.73;90.63;;;;;;;-141.97;100.00;48016.94;4990601;28;20187;-85
2022/11/18 08:04:09;;;;;;;317.27;101.23;;;;;;;-141.97;100.00;47890.06;4991261;28;20241;-85
2022/11/18 08:06:35;;;;;;;85.93;33.60;;;;;;;-141.97;100.00;47851.59;5005990;28;20187;-85
2022/11/18 08:09:01;;;;;;;152.37;50.30;;;;;;;-141.97;100.00;47818.94;4990326;28;20854;-85
2022/11/18 08:11:27;;;;;;;113.10;40.73;;;;;;;-141.97;100.00;47995.78;4991197;28;20187;-84
2022/11/18 08:13:52;;;;;;;133.03;50.23;;;;;;;-141.97;100.00;47859.28;4990957;28;20190;-83
2022/11/18 08:16:21;;;;;;;110.23;41.70;;;;;;;-141.97;100.00;47857.38;4989038;28;20195;-83
2022/11/18 08:18:46;;;;;;;173.50;57.67;;;;;;;-141.97;100.00;47872.75;4989987;28;20183;-84
2022/11/18 08:21:13;;;;;;;155.40;52.30;;;;;;;-141.97;100.00;47803.56;4972979;28;20544;-84
2022/11/18 08:23:39;;;;;;;111.43;39.03;;;;;;;-141.97;100.00;47899.66;5003190;28;20218;-86
2022/11/18 08:26:12;;;;;;;127.40;47.30;;;;;;;-141.97;100.00;47868.91;4977083;28;20243;-84
2022/11/18 08:28:42;;;;;;;160.43;59.73;;;;;;;-141.97;100.00;47949.66;4997601;28;20191;-86
2022/11/18 08:31:25;;;;;;;157.17;67.83;;;;;;;-141.97;100.00;47868.91;4994104;28;20186;-83
2022/11/18 08:33:55;;;;;;;169.00;68.30;;;;;;;-141.97;100.00;47842.00;5008193;28;20211;-83
2022/11/18 08:36:22;;;;;;;123.30;46.20;;;;;;;-141.97;100.00;47926.56;4991808;28;20227;-84
2022/11/18 08:38:48;;;;;;;116.50;43.60;;;;;;;-141.97;100.00;47888.13;4995312;28;20570;-84
2022/11/18 08:41:17;;;;;;;133.13;42.10;;;;;;;-141.97;100.00;47934.25;5015162;28;20186;-83
2022/11/18 08:43:42;;;;;;;110.10;38.57;;;;;;;-141.97;100.00;47853.53;5014393;28;20230;-84
2022/11/18 08:46:07;;;;;;;117.53;44.57;;;;;;;-141.97;100.00;47822.78;5009987;28;20273;-85
2022/11/18 08:48:33;;;;;;;107.90;33.83;;;;;;;-141.97;100.00;47874.69;5014100;28;20733;-84
2022/11/18 08:50:59;;;;;;;95.00;34.40;;;;;;;-141.97;100.00;47870.81;5014743;28;20273;-83
2022/11/18 08:53:24;;;;;;;106.77;38.17;;;;;;;-141.97;100.00;47784.34;5014518;28;20190;-84
2022/11/18 08:55:57;;;;;;;133.07;46.60;;;;;;;-141.97;100.00;47849.69;4997161;28;20234;-83
2022/11/18 08:58:23;;;;;;;85.97;36.23;;;;;;;-141.97;100.00;47890.06;4992170;28;20190;-84
2022/11/18 09:00:48;;;;;;;83.23;34.47;;;;;;;-141.97;100.00;47895.81;5004142;28;20179;-84
2022/11/18 09:03:13;;;;;;;87.50;33.63;;;;;;;-141.97;100.00;47847.75;5002552;28;20214;-84
2022/11/18 09:05:39;;;;;;;70.77;30.00;;;;;;;-141.97;100.00;47753.56;4988524;28;20622;-84
2022/11/18 09:08:04;;;;;;;111.87;30.03;;;;;;;-141.97;100.00;47918.88;4994097;28;20266;-84
2022/11/18 09:10:30;;;;;;;73.23;29.17;;;;;;;-141.97;98.96;47868.91;4993793;28;20175;-84
2022/11/18 09:12:55;;;;;;;76.33;29.13;;;;;;;-141.97;99.30;47861.22;4993800;28;20238;-85
2022/11/18 09:15:22;;;;;;;80.90;29.43;;;;;;;-141.97;98.02;47895.81;4994018;28;20252;-85
2022/11/18 09:17:48;;;;;;;77.57;27.93;;;;;;;-141.97;97.37;47838.16;4993326;28;20270;-84
2022/11/18 09:20:15;;;;;;;73.83;27.93;;;;;;;-141.97;97.21;47882.38;4994672;28;20596;-85
2022/11/18 09:22:41;;;;;;;71.23;30.43;;;;;;;-141.97;97.21;47853.53;4994026;28;20266;-87
2022/11/18 09:25:07;;;;;;;75.20;30.40;;;;;;;-141.97;96.26;47872.75;4979851;28;20310;-85
2022/11/18 09:27:32;;;;;;;70.60;30.10;;;;;;;-141.97;96.01;47822.78;4996372;28;20663;-86
2022/11/18 09:29:58;;;;;;;73.83;31.10;;;;;;;-141.97;95.93;47830.47;5011597;28;20190;-86
2022/11/18 09:32:23;;;;;;;78.60;32.00;;;;;;;-141.97;94.72;47849.69;5020637;28;20187;-89
2022/11/18 09:34:49;;;;;;;79.57;32.53;;;;;;;-141.97;94.29;47888.13;5013573;28;20209;-86
2022/11/18 09:37:14;;;;;;;80.70;31.53;;;;;;;-141.97;94.75;47865.06;4996862;28;20186;-86
2022/11/18 09:39:40;;;;;;;81.97;32.33;;;;;;;-141.97;94.70;47753.56;5006274;28;20209;-88
2022/11/18 09:42:24;;;;;;;89.10;35.27;;;;;;;-141.97;95.51;47895.81;5029879;28;20202;-90
2022/11/18 09:45:13;;;;;;;85.20;33.67;;;;;;;-141.97;95.45;47895.81;5004209;28;20213;-89
2022/11/18 09:47:38;;;;;;;94.33;34.90;;;;;;;-141.97;93.96;47868.91;4943043;29;20207;-90
2022/11/18 09:50:12;;;;;;;81.10;33.90;;;;;;;-141.97;93.37;47941.94;4963299;28;20193;-91
2022/11/18 09:52:56;;;;;;;94.30;38.83;;;;;;;-141.97;92.51;47922.72;4957440;29;20269;-90
2022/11/18 09:55:22;;;;;;;103.17;40.13;;;;;;;-141.97;91.95;47793.94;4937130;29;20689;-85
2022/11/18 09:57:51;;;;;;;108.63;40.33;;;;;;;-141.97;92.87;47845.84;4950980;29;20227;-86
2022/11/18 10:00:22;;;;;;;125.80;43.27;;;;;;;-141.97;94.25;47865.06;4950973;29;20291;-85
2022/11/18 10:02:57;;;;;;;125.63;43.60;;;;;;;-141.97;94.33;47870.81;4952457;29;20212;-85
2022/11/18 10:05:26;;;;;;;129.47;44.53;;;;;;;-141.97;94.27;47866.97;4940251;28;20669;-85
2022/11/18 10:08:10;;;;;;;121.73;44.03;;;;;;;-141.97;94.40;47876.59;4952025;29;20306;-85
2022/11/18 10:10:50;;;;;;;129.33;46.00;;;;;;;-141.97;93.43;47863.13;4936937;29;20200;-86
2022/11/18 10:13:35;;;;;;;125.43;44.40;;;;;;;-141.97;92.38;47870.81;4961467;29;20197;-88
2022/11/18 10:16:19;;;;;;;135.93;45.83;;;;;;;-141.97;93.40;47830.47;4965701;29;20675;-86
2022/11/18 10:19:01;;;;;;;131.30;46.07;;;;;;;-141.97;93.69;47811.25;4957067;28;20203;-88
2022/11/18 10:21:46;;;;;;;135.47;46.07;;;;;;;-141.97;95.08;47840.06;4954813;29;20180;-89
2022/11/18 10:24:18;;;;;;;137.73;49.67;;;;;;;-141.97;94.84;47678.63;4970826;28;20264;-89
2022/11/18 10:26:43;;;;;;;133.07;46.13;;;;;;;-141.97;94.21;47826.63;5003946;28;20207;-90
2022/11/18 10:29:09;;;;;;;124.67;44.13;;;;;;;-141.97;93.66;47803.56;5004043;28;20222;-89
2022/11/18 10:32:00;;;;;;;136.43;47.20;;;;;;;-141.97;92.81;47897.75;5026040;28;20194;-89
2022/11/18 10:34:26;;;;;;;116.77;43.77;;;;;;;-141.97;92.75;47822.78;5002076;28;20188;-89
2022/11/18 10:37:07;;;;;;;118.97;43.03;;;;;;;-141.97;92.33;47753.56;4994807;28;20195;-90
2022/11/18 10:39:32;;;;;;;121.43;43.97;;;;;;;-141.97;91.87;47842.00;4997346;28;20179;-90
2022/11/18 10:42:05;;;;;;;116.97;43.70;;;;;;;-141.97;91.69;47842.00;5001884;28;20215;-91
2022/11/18 10:44:39;;;;;;;109.90;40.57;;;;;;;-141.97;90.61;47865.06;4982307;28;20226;-90
2022/11/18 10:47:22;;;;;;;94.23;38.50;;;;;;;-141.97;90.03;47891.97;4994081;28;20250;-87
2022/11/18 10:49:48;;;;;;;93.63;36.73;;;;;;;-141.97;89.78;47847.75;5001146;28;20179;-87
2022/11/18 10:52:14;;;;;;;102.33;40.30;;;;;;;-141.97;91.34;47857.38;4998490;28;20278;-87
2022/11/18 10:54:40;;;;;;;94.33;36.90;;;;;;;-141.97;94.90;47888.13;5008565;28;20213;-86
2022/11/18 10:57:23;;;;;;;111.10;40.97;;;;;;;-141.97;96.00;47863.13;4998729;28;20190;-87
2022/11/18 10:59:56;;;;;;;98.80;38.00;;;;;;;-141.97;97.05;47838.16;5004927;28;20721;-87
2022/11/18 11:02:37;;;;;;;120.17;42.40;;;;;;;-141.97;96.04;47863.13;5010731;28;20214;-88
2022/11/18 11:05:24;;;;;;;95.10;35.27;;;;;;;-141.97;95.33;47851.59;5005924;28;20834;-86
2022/11/18 11:08:22;;;;;;;86.53;32.10;;;;;;;-141.97;94.52;47849.69;5004210;28;20215;-85
2022/11/18 11:10:58;;;;;;;99.60;37.60;;;;;;;-141.97;94.98;47868.91;5006636;28;20194;-86
2022/11/18 11:13:29;;;;;;;90.53;35.33;;;;;;;-141.97;95.49;47842.00;5003733;28;20185;-88